Terminal Aerodrome Forecast
Issued by NWS Wichita, KS

Home | Current Version | Previous Version | Text Only | Print | Product List | Glossary On
Versions: 1 2 3 4 5 6 7 8 9 10 11 12 13 14 15
064
FTUS43 KICT 191139
TAFICT
TAF
KICT 191139Z 1912/2012 16010KT 2SM BR SCT006
      TEMPO 1912/1914 1/2SM FG BKN006
     FM191400 16012KT 1SM BR SCT003
      TEMPO 1914/1916 1/2SM FG BKN003
     FM191800 17012KT P6SM SCT003 OVC012
     FM200000 16014KT P6SM VCSH BKN015
     FM200300 15013KT 4SM -SHRA VCTS OVC010CB
     FM200600 17014KT P6SM OVC008=

USA.gov is the U.S. government's official web portal to all federal, state and local government web resources and services.